Time;durP1;ratioP1;P1;durP2;ratioP2;P2;SDS_P1;SDS_P2;PMS_P1;PMS_P2;Temp;Humidity;BMP_temperature;BMP_pressure;BME280_temperature;BME280_humidity;BME280_pressure;Samples;Min_cycle;Max_cycle;Signal;HPM_P1;HPM_P2
2022/11/12 00:00:30;;;;;;;;;20.00;15.00;;;;;9.41;82.51;102130.22;6263890;22;45396;-91
2022/11/12 00:02:55;;;;;;;;;21.00;18.75;;;;;9.17;82.60;102064.91;6263061;22;45341;-91
2022/11/12 00:05:21;;;;;;;;;21.25;21.25;;;;;8.47;82.21;101956.97;6265177;22;46574;-91
2022/11/12 00:07:47;;;;;;;;;18.75;18.75;;;;;8.56;82.61;101975.50;6295515;22;44606;-90
2022/11/12 00:10:14;;;;;;;;;20.00;18.75;;;;;8.77;82.65;102016.16;6267363;22;45266;-89
2022/11/12 00:12:39;;;;;;;;;18.50;18.50;;;;;9.23;82.65;102091.34;6285920;22;45235;-91
2022/11/12 00:15:05;;;;;;;;;24.75;21.25;;;;;8.97;82.67;102037.44;6252377;22;46109;-91
2022/11/12 00:17:31;;;;;;;;;28.75;24.50;;;;;8.71;82.49;102012.59;6254042;22;45265;-93
2022/11/12 00:19:56;;;;;;;;;15.25;13.00;;;;;7.62;82.77;101819.94;6293860;22;45875;-92
2022/11/12 00:22:21;;;;;;;;;26.50;23.00;;;;;9.39;82.65;102125.78;6292852;22;44740;-92
2022/11/12 00:24:47;;;;;;;;;21.25;17.75;;;;;9.37;82.86;102143.38;6252239;22;47117;-91
2022/11/12 00:27:12;;;;;;;;;24.25;20.25;;;;;7.76;82.93;101858.72;6256054;22;45214;-91
2022/11/12 00:29:38;;;;;;;;;23.00;21.50;;;;;8.94;83.04;102075.19;6259086;22;45242;-91
2022/11/12 00:32:05;;;;;;;;;19.00;19.00;;;;;8.22;82.65;101943.50;6285006;22;45510;-91
2022/11/12 00:34:31;;;;;;;;;16.75;16.75;;;;;8.94;82.88;102064.66;6282480;22;47213;-92
2022/11/12 00:36:56;;;;;;;;;18.00;17.25;;;;;8.92;82.76;102060.25;6262414;22;45208;-90
2022/11/12 00:39:21;;;;;;;;;21.50;19.00;;;;;8.89;82.62;102053.19;6284082;22;45289;-91
2022/11/12 00:41:47;;;;;;;;;14.75;14.50;;;;;9.30;82.71;102142.41;6263242;22;45139;-91
2022/11/12 00:44:12;;;;;;;;;18.00;18.00;;;;;8.41;82.57;101991.13;6280124;22;47278;-91
2022/11/12 00:46:37;;;;;;;;;18.00;18.00;;;;;8.90;82.62;102060.25;6284584;22;45342;-92
2022/11/12 00:49:04;;;;;;;;;25.50;20.00;;;;;7.71;83.14;101868.28;6255168;22;45175;-92
2022/11/12 00:51:29;;;;;;;;;15.50;15.50;;;;;8.91;83.01;102051.44;6256347;22;45218;-91
2022/11/12 00:53:55;;;;;;;;;21.00;20.00;;;;;8.60;82.72;102016.84;6277201;22;47032;-92
2022/11/12 00:56:20;;;;;;;;;21.75;19.00;;;;;8.26;82.81;101950.56;6279412;22;45229;-91
2022/11/12 00:58:46;;;;;;;;;18.75;17.75;;;;;8.82;83.24;102062.81;6260834;22;45405;-91
2022/11/12 01:01:14;;;;;;;;;18.75;18.50;;;;;9.22;83.04;102120.34;6293162;22;45241;-92
2022/11/12 01:03:40;;;;;;;;;20.50;20.00;;;;;8.79;82.84;102072.41;6267494;22;47503;-91
2022/11/12 01:06:14;;;;;;;;;16.75;16.25;;;;;8.39;82.69;101990.22;6266684;22;44902;-91
2022/11/12 01:08:41;;;;;;;;;17.00;17.00;;;;;8.66;83.26;102042.41;6257791;22;45246;-93
2022/11/12 01:11:13;;;;;;;;;14.50;14.50;;;;;8.85;83.30;102061.94;6280533;22;45315;-91
2022/11/12 01:13:41;;;;;;;;;22.75;20.50;;;;;9.16;82.89;102112.38;6253821;22;46821;-91
2022/11/12 01:16:28;;;;;;;;;21.00;16.75;;;;;8.84;83.14;102062.81;6258940;22;45235;-91
2022/11/12 01:18:56;;;;;;;;;15.25;14.50;;;;;9.06;83.34;102093.81;6262449;22;45266;-92
2022/11/12 01:21:25;;;;;;;;;18.25;18.25;;;;;8.57;83.04;102019.44;6262232;22;45339;-92
2022/11/12 01:23:51;;;;;;;;;23.25;21.50;;;;;8.77;83.70;102043.38;6279631;22;47347;-91
2022/11/12 01:26:19;;;;;;;;;14.25;14.25;;;;;8.53;83.00;102026.44;6277532;22;45443;-92
2022/11/12 01:28:44;;;;;;;;;20.75;18.25;;;;;8.71;83.07;102033.69;6275235;22;45317;-91
2022/11/12 01:31:28;;;;;;;;;17.25;17.25;;;;;8.67;83.01;102036.25;6280101;22;45344;-91
2022/11/12 01:33:59;;;;;;;;;17.25;16.75;;;;;9.07;83.36;102089.41;6283556;22;46923;-92
2022/11/12 01:36:26;;;;;;;;;15.00;13.50;;;;;8.76;83.13;102040.72;6260120;22;45428;-90
2022/11/12 01:38:52;;;;;;;;;15.50;15.50;;;;;9.05;83.16;102099.94;6248908;22;45382;-91
2022/11/12 01:41:27;;;;;;;;;18.00;17.75;;;;;8.23;82.90;101952.28;6248129;22;45337;-92
2022/11/12 01:44:14;;;;;;;;;20.25;17.25;;;;;9.03;83.45;102092.88;6261940;22;47306;-92
2022/11/12 01:47:22;;;;;;;;;16.75;15.75;;;;;8.45;83.09;102003.50;6280538;22;45198;-92
2022/11/12 01:50:11;;;;;;;;;19.25;18.00;;;;;8.19;82.95;101954.00;6205143;22;44697;-92
2022/11/12 01:52:42;;;;;;;;;17.00;17.00;;;;;8.04;83.17;101925.72;6222461;22;44807;-91
2022/11/12 01:55:13;;;;;;;;;16.75;16.00;;;;;8.27;83.33;101968.13;6189643;22;47266;-90
2022/11/12 01:57:54;;;;;;;;;23.25;16.50;;;;;8.56;82.88;102006.25;6190137;22;45478;-91
2022/11/12 02:00:20;;;;;;;;;22.25;18.25;;;;;8.96;83.44;102073.50;6192466;22;45383;-91
2022/11/12 02:02:52;;;;;;;;;17.25;17.25;;;;;8.16;83.59;101953.97;6196766;22;45476;-91
2022/11/12 02:05:21;;;;;;;;;20.25;18.50;;;;;8.15;83.24;101949.56;6194007;22;46196;-92
2022/11/12 02:07:49;;;;;;;;;18.00;16.25;;;;;8.53;83.42;102004.47;6221644;22;45274;-91
2022/11/12 02:10:15;;;;;;;;;25.50;19.25;;;;;8.11;83.25;101929.34;6194662;22;45326;-91
2022/11/12 02:15:26;;;;;;;;;21.50;21.50;;;;;8.91;83.61;102083.09;6224215;22;45211;-90
2022/11/12 02:17:52;;;;;;;;;20.00;18.00;;;;;8.38;83.23;102009.53;6222439;22;44777;-91
2022/11/12 02:20:17;;;;;;;;;19.25;18.00;;;;;7.99;83.16;101946.75;6194091;22;45310;-91
2022/11/12 02:22:43;;;;;;;;;25.25;19.50;;;;;8.31;82.91;102014.72;6224920;22;45406;-92
2022/11/12 02:25:13;;;;;;;;;19.00;16.25;;;;;8.69;82.83;102077.56;6251847;22;46931;-91
2022/11/12 02:27:39;;;;;;;;;21.50;20.00;;;;;7.86;82.86;101939.53;6282356;22;45285;-92
2022/11/12 02:30:05;;;;;;;;;17.25;16.75;;;;;6.90;82.78;101764.66;6284727;22;45253;-92
2022/11/12 02:32:31;;;;;;;;;23.50;21.75;;;;;8.48;82.99;102040.44;6281598;22;45606;-91
2022/11/12 02:34:56;;;;;;;;;21.75;20.00;;;;;7.82;83.18;101927.22;6262704;22;47086;-92
2022/11/12 02:37:21;;;;;;;;;20.75;19.00;;;;;7.80;83.09;101919.31;6292781;22;46112;-92
2022/11/12 02:39:47;;;;;;;;;20.00;20.00;;;;;8.34;83.26;102006.84;6282126;22;45410;-91
2022/11/12 02:42:12;;;;;;;;;18.50;17.50;;;;;7.67;83.33;101892.78;6251718;22;45283;-92
2022/11/12 02:44:38;;;;;;;;;23.00;21.25;;;;;8.31;82.82;102000.69;6282374;22;46826;-91
2022/11/12 02:47:03;;;;;;;;;18.00;17.75;;;;;8.32;83.30;102011.25;6283548;22;45225;-92
2022/11/12 02:49:28;;;;;;;;;23.75;20.50;;;;;7.69;83.15;101901.59;6282595;22;45262;-90
2022/11/12 02:51:55;;;;;;;;;18.50;18.50;;;;;7.88;83.29;101932.56;6285330;22;45500;-91
2022/11/12 02:54:20;;;;;;;;;19.25;19.25;;;;;7.60;82.93;101889.19;6279451;22;47419;-91
2022/11/12 02:56:46;;;;;;;;;20.25;19.25;;;;;8.11;82.94;101967.06;6284248;22;46121;-91
2022/11/12 02:59:11;;;;;;;;;19.50;18.50;;;;;8.68;83.23;102070.56;6257215;22;45495;-92
2022/11/12 03:01:36;;;;;;;;;18.00;18.00;;;;;8.39;82.86;102029.75;6278624;22;45179;-91
2022/11/12 03:04:02;;;;;;;;;20.00;20.00;;;;;7.65;83.34;101898.03;6253432;22;46162;-91
2022/11/12 03:06:27;;;;;;;;;20.50;19.50;;;;;7.92;83.38;101944.00;6284519;22;45285;-90
2022/11/12 03:08:52;;;;;;;;;17.75;16.25;;;;;8.22;83.46;102001.44;6279985;22;45235;-91
2022/11/12 03:11:18;;;;;;;;;26.00;22.00;;;;;8.10;82.79;101969.69;6280362;22;45599;-90
2022/11/12 03:13:43;;;;;;;;;17.75;16.50;;;;;8.22;83.07;101990.03;6255410;22;46177;-90
2022/11/12 03:16:09;;;;;;;;;23.50;19.00;;;;;7.81;83.02;101920.19;6283005;22;45194;-91
2022/11/12 03:18:34;;;;;;;;;19.25;19.25;;;;;8.21;82.73;101989.13;6280838;22;45205;-89
2022/11/12 03:21:23;;;;;;;;;20.75;20.75;;;;;8.62;83.73;102057.28;6256699;22;45255;-91
2022/11/12 03:23:48;;;;;;;;;20.75;18.75;;;;;8.58;83.22;102047.59;6258212;22;47532;-90
2022/11/12 03:26:13;;;;;;;;;17.75;17.25;;;;;8.44;83.66;102022.81;6281036;22;45327;-91
2022/11/12 03:28:39;;;;;;;;;20.50;15.75;;;;;8.61;83.27;102052.91;6255224;22;45355;-93
2022/11/12 03:31:04;;;;;;;;;21.50;19.00;;;;;8.60;83.46;102053.75;6279719;22;45181;-90
2022/11/12 03:33:30;;;;;;;;;18.50;16.00;;;;;7.32;83.27;101830.06;6284625;22;46154;-92
2022/11/12 03:35:55;;;;;;;;;15.75;15.75;;;;;8.23;83.55;101992.69;6261957;22;45194;-91
2022/11/12 03:38:21;;;;;;;;;22.50;20.50;;;;;7.59;83.00;101882.16;6291862;22;44660;-90
2022/11/12 03:40:48;;;;;;;;;18.25;14.75;;;;;8.14;83.28;101972.38;6263678;22;45354;-92
2022/11/12 03:43:13;;;;;;;;;14.75;14.75;;;;;8.10;83.41;101967.06;6255021;22;47043;-93
2022/11/12 03:45:39;;;;;;;;;21.00;18.25;;;;;8.56;83.37;102051.06;6255969;22;45341;-91
2022/11/12 03:48:04;;;;;;;;;20.50;18.75;;;;;7.38;83.24;101853.81;6252981;22;45222;-91
2022/11/12 03:50:30;;;;;;;;;19.00;17.25;;;;;7.94;83.14;101953.72;6280765;22;45257;-91
2022/11/12 03:52:57;;;;;;;;;21.50;17.50;;;;;8.13;83.61;101983.78;6283035;22;45560;-92
2022/11/12 03:55:25;;;;;;;;;19.75;19.25;;;;;8.24;83.30;102010.25;6285275;22;45372;-90
2022/11/12 03:57:52;;;;;;;;;20.00;18.75;;;;;7.76;83.24;101924.50;6285389;22;45396;-92
2022/11/12 04:00:19;;;;;;;;;20.00;20.00;;;;;7.63;83.65;101899.75;6281739;22;45143;-91
2022/11/12 04:02:45;;;;;;;;;20.75;15.50;;;;;8.15;83.18;101989.06;6254653;22;48010;-91
2022/11/12 04:10:43;;;;;;;;;16.00;15.50;;;;;7.62;83.42;101898.00;6283712;22;45311;-92
2022/11/12 04:13:27;;;;;;;;;19.75;16.50;;;;;8.23;83.13;102013.75;6266549;22;46941;-92
2022/11/12 04:21:51;;;;;;;;;12.50;12.50;;;;;8.39;83.38;102037.66;6283626;22;45173;-91
2022/11/12 04:27:02;;;;;;;;;19.00;13.75;;;;;8.70;83.33;102068.81;6280637;22;45414;-91
2022/11/12 04:32:12;;;;;;;;;17.25;15.25;;;;;8.74;83.68;102067.09;6287750;22;45221;-91
2022/11/12 04:34:37;;;;;;;;;19.50;18.00;;;;;8.02;83.50;101945.91;6287479;22;47514;-90
2022/11/12 04:37:04;;;;;;;;;15.75;14.50;;;;;8.76;83.63;102056.56;6278079;22;45355;-91
2022/11/12 04:39:30;;;;;;;;;15.75;14.25;;;;;8.36;84.07;101989.31;6253873;22;45279;-91
2022/11/12 04:47:24;;;;;;;;;15.50;13.75;;;;;8.82;83.66;102069.81;6279846;22;45430;-91
2022/11/12 04:49:49;;;;;;;;;16.50;16.50;;;;;8.81;83.66;102066.28;6281525;22;45363;-91
2022/11/12 04:52:17;;;;;;;;;18.75;16.00;;;;;8.83;84.25;102063.66;6248307;22;45421;-90
2022/11/12 04:54:43;;;;;;;;;20.00;16.50;;;;;8.01;83.72;101921.28;6248616;22;48401;-91
2022/11/12 04:57:08;;;;;;;;;20.25;18.75;;;;;8.23;83.85;101960.16;6251792;22;45219;-90
2022/11/12 04:59:34;;;;;;;;;15.25;15.25;;;;;7.87;83.56;101899.19;6281010;22;45234;-90
2022/11/12 05:01:59;;;;;;;;;22.75;20.00;;;;;8.19;83.62;101935.56;6260835;22;45211;-91
2022/11/12 05:04:27;;;;;;;;;16.00;14.50;;;;;8.83;83.88;102045.22;6290292;22;45370;-91
2022/11/12 05:06:56;;;;;;;;;20.00;18.00;;;;;7.92;83.89;101892.22;6282820;22;45246;-91
2022/11/12 05:09:24;;;;;;;;;21.75;18.00;;;;;8.28;84.06;101950.59;6253931;22;45291;-91
2022/11/12 05:11:52;;;;;;;;;17.50;14.50;;;;;7.77;83.55;101860.47;6259074;22;45194;-91
2022/11/12 05:14:18;;;;;;;;;15.50;15.50;;;;;8.62;84.15;102007.19;6261390;22;46305;-90
2022/11/12 05:16:44;;;;;;;;;17.50;16.25;;;;;8.56;84.02;102001.84;6282205;22;45695;-93
2022/11/12 05:19:09;;;;;;;;;15.25;14.25;;;;;8.94;83.87;102067.28;6252070;22;44796;-91
2022/11/12 05:24:18;;;;;;;;;16.25;13.50;;;;;8.93;83.78;102065.53;6279842;22;45430;-92
2022/11/12 05:26:47;;;;;;;;;13.25;13.25;;;;;8.91;84.17;102059.34;6277235;22;45371;-92
2022/11/12 05:29:12;;;;;;;;;13.00;10.25;;;;;8.01;84.22;101902.88;6254972;22;45227;-89
2022/11/12 05:31:38;;;;;;;;;14.50;13.50;;;;;8.19;84.27;101935.56;6281124;22;45467;-90
2022/11/12 05:34:03;;;;;;;;;14.00;11.50;;;;;7.89;83.67;101892.19;6261453;22;47424;-92
2022/11/12 05:36:29;;;;;;;;;13.25;10.75;;;;;8.36;83.39;101965.59;6254673;22;45175;-91
2022/11/12 05:38:54;;;;;;;;;11.75;10.25;;;;;8.26;84.24;101960.22;6278478;22;45391;-91
2022/11/12 05:41:20;;;;;;;;;10.50;10.50;;;;;8.08;83.60;101918.75;6276786;22;45193;-90
2022/11/12 05:43:45;;;;;;;;;13.75;13.75;;;;;8.20;83.48;101929.44;6280775;22;45256;-90
2022/11/12 05:46:10;;;;;;;;;13.25;12.00;;;;;8.04;83.39;101907.28;6254753;22;45255;-89
2022/11/12 05:48:36;;;;;;;;;19.00;15.25;;;;;8.07;84.08;101909.09;6289036;22;45542;-91
2022/11/12 05:51:02;;;;;;;;;15.25;14.75;;;;;8.36;83.75;101957.69;6253866;22;44987;-91
2022/11/12 05:53:27;;;;;;;;;29.75;21.25;;;;;7.71;83.85;101865.66;6251644;22;47232;-91
2022/11/12 05:55:59;;;;;;;;;25.75;23.25;;;;;7.67;83.62;101848.94;6253392;22;45316;-90
2022/11/12 05:58:24;;;;;;;;;25.25;24.00;;;;;7.27;84.15;101803.69;6250545;22;45238;-91
2022/11/12 06:00:50;;;;;;;;;38.75;33.25;;;;;7.95;83.88;101937.03;6281428;22;45276;-92
2022/11/12 06:03:15;;;;;;;;;38.75;34.75;;;;;8.35;83.78;102013.91;6258189;22;48000;-92
2022/11/12 06:05:41;;;;;;;;;46.25;37.00;;;;;8.36;84.28;101991.06;6254239;22;45356;-92
2022/11/12 06:08:06;;;;;;;;;33.75;32.50;;;;;8.47;84.14;102020.22;6261037;22;45702;-91
2022/11/12 06:10:32;;;;;;;;;37.00;28.50;;;;;8.07;83.81;101948.59;6282903;22;45182;-89
2022/11/12 06:12:57;;;;;;;;;23.50;20.25;;;;;8.04;83.99;101944.16;6285345;22;47371;-90
2022/11/12 06:15:25;;;;;;;;;22.75;20.50;;;;;8.28;84.22;101998.00;6264527;22;44869;-92
2022/11/12 06:17:51;;;;;;;;;21.75;19.25;;;;;8.43;83.69;102010.50;6251311;22;45376;-91
2022/11/12 06:20:17;;;;;;;;;18.75;17.50;;;;;8.61;83.46;102047.63;6250695;22;45328;-89
2022/11/12 06:22:42;;;;;;;;;19.00;14.75;;;;;8.69;83.72;102067.03;6279293;22;47245;-89
2022/11/12 06:25:08;;;;;;;;;16.25;14.50;;;;;7.57;84.05;101873.38;6256525;22;45434;-90
2022/11/12 06:27:33;;;;;;;;;14.75;11.75;;;;;8.67;83.93;102078.41;6251736;22;45742;-90
2022/11/12 06:29:59;;;;;;;;;16.75;15.50;;;;;6.81;83.68;101756.63;6251082;22;45384;-91
2022/11/12 06:32:24;;;;;;;;;17.25;15.00;;;;;8.01;83.81;101954.66;6257880;22;46190;-91
2022/11/12 06:34:52;;;;;;;;;8.25;5.75;;;;;7.87;84.14;101957.13;6282211;22;45196;-91
2022/11/12 06:37:18;;;;;;;;;14.50;14.50;;;;;8.07;84.08;101986.31;6256288;22;45424;-91
2022/11/12 06:39:43;;;;;;;;;19.25;16.75;;;;;8.17;83.99;102014.56;6257621;22;45253;-91
2022/11/12 06:42:09;;;;;;;;;18.75;16.00;;;;;7.74;83.92;101924.47;6255758;22;48578;-90
2022/11/12 06:44:34;;;;;;;;;19.75;18.25;;;;;8.26;83.77;102020.78;6254548;22;45992;-90
2022/11/12 06:47:01;;;;;;;;;18.50;16.25;;;;;8.21;84.06;102011.97;6252197;22;45306;-91
2022/11/12 06:49:26;;;;;;;;;14.00;13.50;;;;;7.56;84.06;101924.22;6253370;22;45305;-91
2022/11/12 06:51:53;;;;;;;;;18.00;16.25;;;;;7.11;83.74;101837.69;6255216;22;47917;-90
2022/11/12 06:54:19;;;;;;;;;19.50;18.00;;;;;8.09;84.09;101999.50;6277619;22;45228;-92
2022/11/12 06:56:44;;;;;;;;;20.00;14.25;;;;;8.13;83.87;102011.88;6253361;22;45109;-91
2022/11/12 06:59:10;;;;;;;;;17.75;14.00;;;;;7.26;83.84;101867.72;6257141;22;44898;-91
2022/11/12 07:01:35;;;;;;;;;14.75;14.75;;;;;7.34;83.78;101892.34;6285339;22;45496;-91
2022/11/12 07:04:02;;;;;;;;;19.00;17.75;;;;;8.29;84.25;102050.72;6258778;22;45171;-91
2022/11/12 07:06:27;;;;;;;;;19.00;16.75;;;;;7.52;84.03;101928.56;6256047;22;45292;-92
2022/11/12 07:08:53;;;;;;;;;20.50;18.50;;;;;8.46;84.08;102092.25;6279408;22;45361;-91
2022/11/12 07:11:19;;;;;;;;;16.75;16.50;;;;;8.13;83.92;102032.94;6234445;22;45990;-91
2022/11/12 07:13:46;;;;;;;;;18.25;16.50;;;;;8.41;83.94;102101.78;6267504;22;45440;-91
2022/11/12 07:16:12;;;;;;;;;16.00;15.75;;;;;7.28;83.88;101882.63;6263083;22;45258;-93
2022/11/12 07:18:39;;;;;;;;;18.00;18.00;;;;;8.39;84.05;102069.28;6252049;22;45154;-92
2022/11/12 07:21:07;;;;;;;;;24.50;21.25;;;;;8.41;84.19;102075.44;6251649;22;47517;-90
2022/11/12 07:23:34;;;;;;;;;13.75;13.75;;;;;8.08;84.03;102026.75;6267462;22;45404;-90
2022/11/12 07:26:04;;;;;;;;;16.75;14.75;;;;;6.94;83.83;101849.72;6257516;22;45383;-92
2022/11/12 07:28:30;;;;;;;;;19.00;16.50;;;;;7.98;84.08;102041.50;6257832;22;45281;-91
2022/11/12 07:31:01;;;;;;;;;17.50;17.00;;;;;6.82;83.51;101817.94;6258344;22;47807;-92
2022/11/12 07:33:27;;;;;;;;;19.75;17.50;;;;;7.66;84.03;101970.88;6283388;22;45309;-91
2022/11/12 07:36:01;;;;;;;;;19.25;17.75;;;;;8.46;83.19;102110.69;6252614;22;45164;-92
2022/11/12 07:38:28;;;;;;;;;14.00;13.75;;;;;8.44;83.98;102096.59;6261749;22;45314;-91
2022/11/12 07:41:01;;;;;;;;;21.00;20.00;;;;;8.50;84.05;102102.84;6253955;22;47030;-92
2022/11/12 07:43:28;;;;;;;;;22.75;21.00;;;;;7.49;84.11;101932.91;6282159;22;45392;-90
2022/11/12 07:45:57;;;;;;;;;21.50;18.75;;;;;8.55;84.24;102089.72;6283599;22;45361;-90
2022/11/12 07:48:23;;;;;;;;;19.75;18.00;;;;;7.76;83.41;101950.84;6250693;22;44966;-90
2022/11/12 07:50:48;;;;;;;;;18.75;18.75;;;;;8.51;83.77;102059.78;6251169;22;47188;-91
2022/11/12 07:53:13;;;;;;;;;17.00;14.75;;;;;7.18;83.29;101807.13;6274800;22;45335;-91
2022/11/12 07:55:39;;;;;;;;;17.00;17.00;;;;;8.65;83.55;102033.59;6255772;22;45230;-90
2022/11/12 07:58:04;;;;;;;;;17.50;15.00;;;;;8.48;83.23;102004.41;6288982;22;45281;-92
2022/11/12 08:00:29;;;;;;;;;14.50;13.25;;;;;8.90;82.85;102049.69;6286367;22;46856;-91
2022/11/12 08:02:59;;;;;;;;;16.00;15.75;;;;;8.63;83.09;101995.78;6262978;22;45238;-92
2022/11/12 08:05:24;;;;;;;;;17.50;16.00;;;;;9.60;82.82;102117.19;6281586;22;45279;-91
2022/11/12 08:07:49;;;;;;;;;16.50;14.50;;;;;8.79;82.43;101957.31;6251435;22;45242;-90
2022/11/12 08:10:15;;;;;;;;;21.25;20.00;;;;;9.00;82.24;101946.06;6277713;22;47094;-91
2022/11/12 08:12:40;;;;;;;;;19.50;19.25;;;;;10.19;82.33;102105.28;6251616;22;45134;-92
2022/11/12 08:15:06;;;;;;;;;19.00;18.75;;;;;8.56;81.82;101779.63;6255777;22;45255;-91
2022/11/12 08:17:31;;;;;;;;;19.00;18.50;;;;;10.13;81.55;102020.69;6255930;22;45443;-91
2022/11/12 08:19:58;;;;;;;;;20.75;18.00;;;;;10.16;81.44;101961.69;6255666;22;45388;-90
2022/11/12 08:22:23;;;;;;;;;21.25;20.25;;;;;10.03;80.91;101916.72;6253593;22;45354;-92
2022/11/12 08:24:48;;;;;;;;;22.50;19.25;;;;;11.07;80.79;102044.81;6279096;22;45425;-92
2022/11/12 08:27:14;;;;;;;;;18.25;18.25;;;;;10.82;80.99;101968.03;6281272;22;45352;-91
2022/11/12 08:29:40;;;;;;;;;18.50;17.25;;;;;11.58;80.48;102081.00;6284528;22;46200;-93
2022/11/12 08:32:08;;;;;;;;;17.00;16.00;;;;;11.11;80.64;101967.16;6282399;22;45388;-91
2022/11/12 08:34:34;;;;;;;;;19.75;17.50;;;;;11.46;80.80;102021.84;6250916;22;45143;-92
2022/11/12 08:37:00;;;;;;;;;19.75;19.50;;;;;11.17;80.31;101948.69;6276953;22;45142;-93
2022/11/12 08:39:25;;;;;;;;;22.00;20.75;;;;;11.63;80.56;102019.22;6277001;22;48409;-89
2022/11/12 08:45:12;;;;;;;;;20.25;18.50;;;;;12.66;79.53;102147.94;6292565;22;44614;-90
2022/11/12 08:47:38;;;;;;;;;20.00;19.00;;;;;12.56;79.41;102096.72;6294723;22;44872;-90
2022/11/12 08:50:04;;;;;;;;;23.00;20.50;;;;;12.99;78.89;102148.69;6265297;22;46950;-92
2022/11/12 08:52:29;;;;;;;;;16.75;14.75;;;;;12.37;78.56;101999.56;6262647;22;45615;-90
2022/11/12 08:54:54;;;;;;;;;14.50;14.00;;;;;13.17;78.12;102094.63;6259667;22;45458;-90
2022/11/12 08:57:21;;;;;;;;;16.50;15.50;;;;;13.19;77.61;102044.16;6261035;22;45429;-90
2022/11/12 08:59:50;;;;;;;;;17.75;16.75;;;;;13.66;77.32;102082.75;6296634;22;46279;-91
2022/11/12 09:05:37;;;;;;;;;13.25;12.25;;;;;13.55;76.12;101952.69;6282121;22;45399;-91
2022/11/12 09:08:06;;;;;;;;;15.75;15.75;;;;;14.57;76.13;102095.06;6248503;22;45587;-90
2022/11/12 09:10:32;;;;;;;;;16.00;16.00;;;;;14.88;75.74;102126.66;6278020;22;46553;-91
2022/11/12 09:12:57;;;;;;;;;18.75;17.50;;;;;14.99;75.60;102129.19;6256342;22;45655;-90
2022/11/12 09:15:24;;;;;;;;;13.00;13.00;;;;;14.78;75.65;102066.47;6288155;22;45288;-92
2022/11/12 09:18:00;;;;;;;;;13.75;13.75;;;;;15.16;75.86;102120.94;6289695;22;45226;-91
2022/11/12 09:20:31;;;;;;;;;18.00;16.00;;;;;15.21;75.63;102119.97;6262570;22;46606;-94
2022/11/12 09:23:27;;;;;;;;;14.50;14.50;;;;;14.56;75.99;102009.06;6270280;22;44630;-95
2022/11/12 09:26:06;;;;;;;;;15.75;15.75;;;;;14.64;75.87;102018.75;6163151;23;45277;-92
2022/11/12 09:28:32;;;;;;;;;20.00;18.50;;;;;13.95;75.75;101888.47;6138449;23;45473;-91
2022/11/12 09:30:58;;;;;;;;;23.75;20.75;;;;;15.00;75.86;102080.34;6136680;23;45850;-92
2022/11/12 09:33:26;;;;;;;;;18.00;17.00;;;;;15.16;75.89;102091.66;6154638;23;45469;-90
2022/11/12 09:35:53;;;;;;;;;17.00;15.50;;;;;14.91;75.98;102041.44;6153106;23;45408;-90
2022/11/12 09:38:19;;;;;;;;;22.00;22.00;;;;;15.38;75.74;102126.81;6126081;23;45272;-90
2022/11/12 09:40:47;;;;;;;;;19.00;16.25;;;;;15.45;75.77;102110.69;6127854;23;47397;-91
2022/11/12 09:43:38;;;;;;;;;19.50;18.00;;;;;15.56;75.85;102110.56;6127962;23;45223;-92
2022/11/12 09:46:13;;;;;;;;;17.00;17.00;;;;;15.74;74.82;102109.34;6141175;23;45228;-91
2022/11/12 09:48:45;;;;;;;;;20.75;20.25;;;;;15.59;74.62;102057.19;6131696;23;45201;-91
2022/11/12 09:51:19;;;;;;;;;20.00;18.00;;;;;15.81;74.58;102084.38;6156619;23;45757;-93
2022/11/12 09:54:22;;;;;;;;;18.50;18.50;;;;;14.88;74.11;101884.44;6134519;23;45291;-92
2022/11/12 09:56:49;;;;;;;;;19.75;17.25;;;;;15.69;74.12;101993.06;6213483;22;45393;-90
2022/11/12 09:59:15;;;;;;;;;24.00;20.75;;;;;15.97;73.90;102050.31;6255288;22;45485;-87
2022/11/12 10:01:55;;;;;;;;;20.25;19.25;;;;;16.52;74.34;102125.69;6277009;22;46756;-89
2022/11/12 10:04:24;;;;;;;;;25.75;22.25;;;;;16.36;74.64;102084.22;6280661;22;45328;-90
2022/11/12 10:07:04;;;;;;;;;21.25;19.50;;;;;16.67;73.75;102127.19;6278967;22;45468;-91
2022/11/12 10:09:58;;;;;;;;;20.50;18.75;;;;;16.37;74.34;102071.75;6280889;22;45111;-92
2022/11/12 10:13:01;;;;;;;;;22.50;20.50;;;;;16.64;75.04;102129.91;6239303;22;47267;-91
2022/11/12 10:18:41;;;;;;;;;21.50;20.50;;;;;16.33;74.67;102055.81;6281533;22;45185;-91
2022/11/12 10:21:16;;;;;;;;;22.75;19.50;;;;;16.85;74.23;102128.56;6280243;22;45404;-94
2022/11/12 10:23:45;;;;;;;;;20.75;19.25;;;;;15.63;74.39;101914.09;6257905;22;45527;-90
2022/11/12 10:26:16;;;;;;;;;20.50;20.00;;;;;15.37;74.31;101848.91;6286497;22;45149;-92
2022/11/12 10:29:27;;;;;;;;;17.00;16.00;;;;;16.39;74.11;101982.75;6261973;22;45281;-91
2022/11/12 10:32:35;;;;;;;;;21.75;17.00;;;;;17.21;73.99;102107.28;6228017;22;45564;-90
2022/11/12 10:35:21;;;;;;;;;21.25;21.25;;;;;17.35;74.40;102108.75;6257834;22;45401;-90
2022/11/12 10:37:51;;;;;;;;;21.75;17.75;;;;;17.44;73.90;102110.34;6246549;22;45464;-90
2022/11/12 10:40:30;;;;;;;;;21.25;19.00;;;;;17.47;73.89;102107.59;6221110;22;45236;-92
2022/11/12 10:43:02;;;;;;;;;18.75;18.25;;;;;17.43;73.61;102098.78;6247633;22;45424;-92
2022/11/12 10:45:28;;;;;;;;;21.25;21.25;;;;;15.96;73.62;101855.72;6254097;22;47033;-91
2022/11/12 10:47:54;;;;;;;;;18.00;18.00;;;;;17.54;73.80;102107.41;6227728;22;45482;-90
2022/11/12 10:50:40;;;;;;;;;19.75;19.75;;;;;17.67;73.61;102107.09;6227450;22;45376;-90
2022/11/12 10:53:09;;;;;;;;;20.50;19.00;;;;;17.36;72.98;102057.09;6256328;22;45440;-90
2022/11/12 10:55:55;;;;;;;;;25.75;23.25;;;;;16.14;73.24;101846.41;6256604;22;47331;-91
2022/11/12 10:58:22;;;;;;;;;25.50;22.25;;;;;16.84;73.50;101968.41;6251900;22;45175;-93
2022/11/12 11:00:52;;;;;;;;;23.50;21.75;;;;;17.55;73.30;102076.19;6225823;22;45436;-92
2022/11/12 11:03:24;;;;;;;;;22.25;21.50;;;;;16.69;72.69;101945.63;6247614;22;45266;-91
2022/11/12 11:05:53;;;;;;;;;20.50;18.00;;;;;17.38;73.52;102084.63;6245707;22;45472;-91
2022/11/12 11:08:34;;;;;;;;;22.25;22.00;;;;;17.17;73.63;102046.88;6252247;22;45360;-92
2022/11/12 11:11:32;;;;;;;;;23.25;22.50;;;;;17.46;73.54;102069.31;6228614;22;45400;-94
2022/11/12 11:14:17;;;;;;;;;22.00;22.00;;;;;16.77;72.84;101914.25;6129355;23;45485;-90
2022/11/12 11:16:59;;;;;;;;;21.50;20.50;;;;;16.80;72.35;101890.16;6158512;23;47101;-92
2022/11/12 11:19:36;;;;;;;;;27.25;24.75;;;;;17.55;71.95;101972.84;6156171;23;45210;-91
2022/11/12 11:22:12;;;;;;;;;24.75;23.25;;;;;17.04;71.29;101845.97;6148651;23;44762;-91
2022/11/12 11:24:55;;;;;;;;;25.50;23.75;;;;;17.68;71.31;101890.50;6147372;23;44890;-90
2022/11/12 11:27:59;;;;;;;;;18.25;18.25;;;;;18.82;71.26;102041.41;6164514;23;46906;-91
2022/11/12 11:30:24;;;;;;;;;24.50;24.25;;;;;18.60;70.53;101969.81;6160560;23;45370;-93
2022/11/12 11:33:14;;;;;;;;;32.50;30.00;;;;;18.95;70.58;102009.81;6131832;23;45363;-91
2022/11/12 11:35:51;;;;;;;;;29.75;29.75;;;;;19.26;70.80;102036.44;6137310;23;45245;-92
2022/11/12 11:38:52;;;;;;;;;25.75;20.75;;;;;18.98;70.67;101981.09;6154490;23;46638;-91
2022/11/12 11:41:36;;;;;;;;;32.75;30.25;;;;;19.22;70.95;102024.09;6046944;23;45439;-92
2022/11/12 11:44:25;;;;;;;;;22.00;22.00;;;;;18.56;70.88;101917.28;6067138;23;44824;-91
2022/11/12 11:47:11;;;;;;;;;29.00;27.00;;;;;19.03;71.45;101969.38;6043168;23;45368;-92
2022/11/12 11:49:42;;;;;;;;;21.25;20.50;;;;;19.65;70.91;102011.88;6090021;23;46610;-92
2022/11/12 11:52:34;;;;;;;;;20.50;18.75;;;;;20.17;70.69;102029.72;6132275;23;45309;-91
2022/11/12 11:55:16;;;;;;;;;22.50;22.00;;;;;20.83;69.22;102004.81;6160465;23;45332;-93
2022/11/12 11:58:11;;;;;;;;;28.50;25.75;;;;;21.63;68.31;102005.03;6132563;23;45248;-93
2022/11/12 12:01:15;;;;;;;;;25.25;24.25;;;;;22.42;67.75;102028.41;6160784;23;46226;-93
2022/11/12 12:04:08;;;;;;;;;25.75;25.75;;;;;22.99;66.77;102014.03;6073321;23;45309;-91